Track Удовиченко Игорь

Time Latitude Longitude Accuracy (66% radius in meters) Altitude (meters) Speed (km/hour) Bearing (degrees) Battery (%) GPS flag
07:14:01 57.204887 60.117487 0 0 0 0 1 delete
07:14:00 57.204915 60.117501 0 0 0 0 1 delete
07:13:59 57.204945 60.117512 0 0 0 0 1 delete
07:13:58 57.204973 60.117526 0 0 0 0 1 delete
07:13:57 57.205000 60.117534 0 0 0 0 1 delete
07:13:56 57.205024 60.117541 0 0 0 0 1 delete
07:13:55 57.205048 60.117543 0 0 0 0 1 delete
07:13:54 57.205072 60.117546 0 0 0 0 1 delete
07:13:53 57.205098 60.117548 0 0 0 0 1 delete
07:13:52 57.205117 60.117552 0 0 0 0 1 delete
07:13:51 57.205133 60.117556 0 0 0 0 1 delete
07:13:50 57.205143 60.117563 0 0 0 0 1 delete
07:13:49 57.205152 60.117574 0 0 0 0 1 delete
07:13:48 57.205160 60.117583 0 0 0 0 1 delete
07:13:47 57.205166 60.117587 0 0 0 0 1 delete
07:13:46 57.205170 60.117582 0 0 0 0 1 delete
07:13:45 57.205173 60.117568 0 0 0 0 1 delete
07:13:44 57.205177 60.117548 0 0 0 0 1 delete
07:13:43 57.205182 60.117520 0 0 0 0 1 delete
07:13:42 57.205188 60.117489 0 0 0 0 1 delete
07:13:41 57.205193 60.117457 0 0 0 0 1 delete
07:13:40 57.205198 60.117433 0 0 0 0 1 delete
07:13:39 57.205202 60.117412 0 0 0 0 1 delete
07:13:38 57.205205 60.117390 0 0 0 0 1 delete
07:13:37 57.205208 60.117364 0 0 0 0 1 delete
07:13:36 57.205209 60.117340 0 0 0 0 1 delete
07:13:35 57.205210 60.117317 0 0 0 0 1 delete
07:13:34 57.205210 60.117296 0 0 0 0 1 delete
07:13:33 57.205210 60.117273 0 0 0 0 1 delete
07:13:32 57.205212 60.117249 0 0 0 0 1 delete
07:13:31 57.205213 60.117224 0 0 0 0 1 delete
07:13:30 57.205214 60.117196 0 0 0 0 1 delete
07:13:29 57.205213 60.117171 0 0 0 0 1 delete
07:13:28 57.205214 60.117143 0 0 0 0 1 delete
07:13:27 57.205212 60.117120 0 0 0 0 1 delete
07:13:26 57.205209 60.117097 0 0 0 0 1 delete
07:13:25 57.205205 60.117075 0 0 0 0 1 delete
07:13:24 57.205203 60.117053 0 0 0 0 1 delete
07:13:23 57.205202 60.117029 0 0 0 0 1 delete
07:13:22 57.205202 60.117004 0 0 0 0 1 delete
07:13:21 57.205200 60.116978 0 0 0 0 1 delete
07:13:20 57.205199 60.116953 0 0 0 0 1 delete
07:13:19 57.205197 60.116928 0 0 0 0 1 delete
07:13:18 57.205194 60.116904 0 0 0 0 1 delete
07:13:17 57.205191 60.116879 0 0 0 0 1 delete
07:13:16 57.205187 60.116853 0 0 0 0 1 delete
07:13:15 57.205185 60.116826 0 0 0 0 1 delete
07:13:14 57.205183 60.116798 0 0 0 0 1 delete
07:13:13 57.205183 60.116769 0 0 0 0 1 delete
07:13:12 57.205185 60.116740 0 0 0 0 1 delete